Time;durP1;ratioP1;P1;durP2;ratioP2;P2;SDS_P1;SDS_P2;PMS_P1;PMS_P2;Temp;Humidity;BMP_temperature;BMP_pressure;BME280_temperature;BME280_humidity;BME280_pressure;Samples;Min_cycle;Max_cycle;Signal;HPM_P1;HPM_P2
2021/04/05 00:01:16;;;;;;;1.77;1.30;;;;;;;;;;5071716;28;20413;-72
2021/04/05 00:03:42;;;;;;;2.67;1.10;;;;;;;;;;5072390;28;20390;-72
2021/04/05 00:06:08;;;;;;;2.50;1.90;;;;;;;;;;5072362;28;20394;-72
2021/04/05 00:08:34;;;;;;;2.13;1.87;;;;;;;;;;5072472;28;20946;-69
2021/04/05 00:11:00;;;;;;;1.33;1.23;;;;;;;;;;5072356;28;20418;-72
2021/04/05 00:13:30;;;;;;;0.70;0.60;;;;;;;;;;5072236;28;20424;-72
2021/04/05 00:15:57;;;;;;;2.60;2.20;;;;;;;;;;5054422;28;20429;-72
2021/04/05 00:18:23;;;;;;;3.90;2.70;;;;;;;;;;5072134;28;20531;-71
2021/04/05 00:21:10;;;;;;;1.20;0.90;;;;;;;;;;5070615;28;20453;-70
2021/04/05 00:23:36;;;;;;;1.80;0.90;;;;;;;;;;5057046;28;20437;-70
2021/04/05 00:26:03;;;;;;;2.80;1.80;;;;;;;;;;5052109;28;20882;-72
2021/04/05 00:28:29;;;;;;;1.00;0.90;;;;;;;;;;5045564;28;20404;-71
2021/04/05 00:30:55;;;;;;;1.30;1.17;;;;;;;;;;5031672;28;20503;-71
2021/04/05 00:33:22;;;;;;;1.73;1.50;;;;;;;;;;5031550;28;20403;-71
2021/04/05 00:35:48;;;;;;;1.10;1.00;;;;;;;;;;5032283;28;20407;-71
2021/04/05 00:38:14;;;;;;;4.73;1.90;;;;;;;;;;5031838;28;20459;-72
2021/04/05 00:40:46;;;;;;;2.13;1.40;;;;;;;;;;5031153;28;20413;-72
2021/04/05 00:43:13;;;;;;;2.60;1.57;;;;;;;;;;5031127;28;20438;-72
2021/04/05 00:45:40;;;;;;;1.77;1.67;;;;;;;;;;5031708;28;20438;-71
2021/04/05 00:48:06;;;;;;;2.40;1.93;;;;;;;;;;5031698;28;20905;-71
2021/04/05 00:50:41;;;;;;;6.10;3.17;;;;;;;;;;5031052;28;20611;-72
2021/04/05 00:53:08;;;;;;;2.90;1.40;;;;;;;;;;5041420;28;20806;-72
2021/04/05 00:55:38;;;;;;;2.50;2.23;;;;;;;;;;5071343;28;20399;-72
2021/04/05 00:58:04;;;;;;;1.20;1.10;;;;;;;;;;5071236;28;20449;-73
2021/04/05 01:00:38;;;;;;;1.50;1.13;;;;;;;;;;5070891;28;20920;-72
2021/04/05 01:03:05;;;;;;;2.27;1.57;;;;;;;;;;5070847;28;20770;-70
2021/04/05 01:05:32;;;;;;;1.37;1.20;;;;;;;;;;5071269;28;20439;-72
2021/04/05 01:07:57;;;;;;;1.87;1.70;;;;;;;;;;5053589;28;20500;-72
2021/04/05 01:10:24;;;;;;;2.40;1.33;;;;;;;;;;5071139;28;20505;-73
2021/04/05 01:12:51;;;;;;;3.23;2.87;;;;;;;;;;5052363;28;21036;-74
2021/04/05 01:15:17;;;;;;;3.50;2.30;;;;;;;;;;5070905;28;20405;-73
2021/04/05 01:17:44;;;;;;;5.53;1.30;;;;;;;;;;5071260;28;20406;-73
2021/04/05 01:20:11;;;;;;;1.67;1.27;;;;;;;;;;5069392;28;20394;-72
2021/04/05 01:22:38;;;;;;;6.63;3.03;;;;;;;;;;5063392;28;20411;-73
2021/04/05 01:25:08;;;;;;;2.67;2.00;;;;;;;;;;5050540;28;20395;-72
2021/04/05 01:27:34;;;;;;;5.63;2.00;;;;;;;;;;5051296;28;20414;-73
2021/04/05 01:30:00;;;;;;;2.20;1.67;;;;;;;;;;5051397;28;20410;-73
2021/04/05 01:32:26;;;;;;;1.50;1.17;;;;;;;;;;5032401;28;20442;-70
2021/04/05 01:34:52;;;;;;;4.93;2.30;;;;;;;;;;5050690;28;20377;-74
2021/04/05 01:37:18;;;;;;;4.10;2.93;;;;;;;;;;5033082;28;20411;-68
2021/04/05 01:39:44;;;;;;;2.13;1.30;;;;;;;;;;5050769;28;20864;-70
2021/04/05 01:42:10;;;;;;;3.73;2.47;;;;;;;;;;5049872;28;20445;-70
2021/04/05 01:44:38;;;;;;;5.10;1.60;;;;;;;;;;5050730;28;20495;-71
2021/04/05 01:47:04;;;;;;;4.63;1.47;;;;;;;;;;5050557;28;20426;-70
2021/04/05 01:49:30;;;;;;;2.90;2.10;;;;;;;;;;5038883;28;20538;-70
2021/04/05 01:51:56;;;;;;;2.30;1.47;;;;;;;;;;5029920;28;20831;-70
2021/04/05 01:54:22;;;;;;;2.23;1.67;;;;;;;;;;5061291;28;20936;-69
2021/04/05 01:56:48;;;;;;;1.40;1.13;;;;;;;;;;5052832;28;20410;-71
2021/04/05 01:59:14;;;;;;;1.17;1.07;;;;;;;;;;5070376;28;20453;-71
2021/04/05 02:01:40;;;;;;;3.37;3.07;;;;;;;;;;5069849;28;20418;-71
2021/04/05 02:04:06;;;;;;;2.27;2.07;;;;;;;;;;5070253;28;20376;-69
2021/04/05 02:06:34;;;;;;;1.10;1.00;;;;;;;;;;5052671;28;20406;-70
2021/04/05 02:09:01;;;;;;;1.50;1.40;;;;;;;;;;5070370;28;20421;-70
2021/04/05 02:11:29;;;;;;;2.80;1.90;;;;;;;;;;5069601;28;20945;-68
2021/04/05 02:13:56;;;;;;;2.43;1.17;;;;;;;;;;5070488;28;20412;-70
2021/04/05 02:16:23;;;;;;;5.90;2.93;;;;;;;;;;5070199;28;20493;-69
2021/04/05 02:18:50;;;;;;;4.80;1.73;;;;;;;;;;5070400;28;20874;-72
2021/04/05 02:21:17;;;;;;;3.13;1.57;;;;;;;;;;5067619;28;20416;-70
2021/04/05 02:23:45;;;;;;;2.00;1.77;;;;;;;;;;5054197;28;20883;-71
2021/04/05 02:26:12;;;;;;;3.17;1.77;;;;;;;;;;5050035;28;20402;-70
2021/04/05 02:28:38;;;;;;;1.83;1.73;;;;;;;;;;5049547;28;20403;-70
2021/04/05 02:31:05;;;;;;;2.27;1.87;;;;;;;;;;5049366;28;20899;-71
2021/04/05 02:33:31;;;;;;;4.03;1.03;;;;;;;;;;5050367;28;20403;-71
2021/04/05 02:35:57;;;;;;;4.03;1.77;;;;;;;;;;5050368;28;20402;-70
2021/04/05 02:38:23;;;;;;;6.87;1.50;;;;;;;;;;5054145;28;20968;-70
2021/04/05 02:40:49;;;;;;;2.77;1.30;;;;;;;;;;5035922;28;20438;-71
2021/04/05 02:43:15;;;;;;;1.13;1.00;;;;;;;;;;5053813;28;20773;-70
2021/04/05 02:45:42;;;;;;;2.90;2.40;;;;;;;;;;5054324;28;20464;-70
2021/04/05 02:48:09;;;;;;;1.77;1.67;;;;;;;;;;5054255;28;20403;-69
2021/04/05 02:50:36;;;;;;;3.07;1.63;;;;;;;;;;5035632;28;20422;-71
2021/04/05 02:53:05;;;;;;;2.03;1.33;;;;;;;;;;5058411;28;20442;-71
2021/04/05 02:55:31;;;;;;;3.30;3.00;;;;;;;;;;5074192;28;20766;-71
2021/04/05 02:57:57;;;;;;;2.60;1.50;;;;;;;;;;5055933;28;20461;-70
2021/04/05 03:00:24;;;;;;;3.00;1.93;;;;;;;;;;5073488;28;20423;-71
2021/04/05 03:02:51;;;;;;;7.70;1.53;;;;;;;;;;5073270;28;20405;-71
2021/04/05 03:05:19;;;;;;;14.13;1.43;;;;;;;;;;5073694;28;20459;-71
2021/04/05 03:07:45;;;;;;;1.50;1.40;;;;;;;;;;5073565;28;20517;-70
2021/04/05 03:10:13;;;;;;;2.60;1.30;;;;;;;;;;5073266;28;20398;-72
2021/04/05 03:12:40;;;;;;;2.47;1.50;;;;;;;;;;5073303;28;20386;-71
2021/04/05 03:15:07;;;;;;;4.70;2.77;;;;;;;;;;5073532;28;20402;-71
2021/04/05 03:17:35;;;;;;;2.87;1.53;;;;;;;;;;5055721;28;20417;-71
2021/04/05 03:20:01;;;;;;;7.40;1.63;;;;;;;;;;5073545;28;20467;-71
2021/04/05 03:22:27;;;;;;;0.90;0.90;;;;;;;;;;5065078;28;20419;-71
2021/04/05 03:24:53;;;;;;;1.93;0.73;;;;;;;;;;5053378;28;20388;-70
2021/04/05 03:27:19;;;;;;;2.00;0.90;;;;;;;;;;5035311;28;20468;-70
2021/04/05 03:29:46;;;;;;;1.53;1.27;;;;;;;;;;5053256;28;20860;-71
2021/04/05 03:32:20;;;;;;;2.87;1.00;;;;;;;;;;5052352;28;20790;-69
2021/04/05 03:34:52;;;;;;;1.27;1.17;;;;;;;;;;5053037;28;20395;-71
2021/04/05 03:37:19;;;;;;;1.63;1.20;;;;;;;;;;5053052;28;20391;-70
2021/04/05 03:39:48;;;;;;;1.97;1.57;;;;;;;;;;5052826;28;20508;-69
2021/04/05 03:42:31;;;;;;;6.33;1.43;;;;;;;;;;5081259;22;20486;-71
2021/04/05 03:45:00;;;;;;;1.23;1.10;;;;;;;;;;5073142;28;20432;-71
2021/04/05 03:47:37;;;;;;;5.43;3.27;;;;;;;;;;5072557;28;20393;-72
2021/04/05 03:50:09;;;;;;;0.90;0.80;;;;;;;;;;5055044;28;20464;-72
2021/04/05 03:52:38;;;;;;;1.30;1.10;;;;;;;;;;5054773;28;20847;-71
2021/04/05 03:55:07;;;;;;;1.13;1.00;;;;;;;;;;5056004;28;20496;-71
2021/04/05 03:57:35;;;;;;;1.53;1.27;;;;;;;;;;5056132;28;20409;-72
2021/04/05 04:00:08;;;;;;;1.33;1.23;;;;;;;;;;5074508;28;20747;-73
2021/04/05 04:02:40;;;;;;;1.27;1.17;;;;;;;;;;5039348;28;20958;-72
2021/04/05 04:05:13;;;;;;;2.77;1.50;;;;;;;;;;5071353;28;20429;-72
2021/04/05 04:07:43;;;;;;;7.00;3.57;;;;;;;;;;5066604;28;20908;-72
2021/04/05 04:10:13;;;;;;;1.63;1.17;;;;;;;;;;5054475;28;20520;-73
2021/04/05 04:12:42;;;;;;;2.03;1.07;;;;;;;;;;5072169;28;20489;-73
2021/04/05 04:15:11;;;;;;;5.57;1.50;;;;;;;;;;5054311;28;20410;-73
2021/04/05 04:17:38;;;;;;;3.80;1.83;;;;;;;;;;5074054;28;20454;-74
2021/04/05 04:20:09;;;;;;;2.40;1.60;;;;;;;;;;5059208;28;20462;-73
2021/04/05 04:22:36;;;;;;;1.80;1.70;;;;;;;;;;5049223;28;20778;-73
2021/04/05 04:25:02;;;;;;;1.50;1.40;;;;;;;;;;5075134;28;20481;-75
2021/04/05 04:27:28;;;;;;;1.00;0.90;;;;;;;;;;5092569;28;20491;-72
2021/04/05 04:29:55;;;;;;;0.70;0.50;;;;;;;;;;5084243;28;20764;-72
2021/04/05 04:32:22;;;;;;;0.70;0.50;;;;;;;;;;5054165;28;20421;-74
2021/04/05 04:34:48;;;;;;;0.70;0.40;;;;;;;;;;5057982;28;20436;-80
2021/04/05 04:37:14;;;;;;;0.70;0.50;;;;;;;;;;5075428;28;20484;-74
2021/04/05 04:39:41;;;;;;;0.70;0.40;;;;;;;;;;5072843;28;20598;-72
2021/04/05 04:42:07;;;;;;;0.70;0.50;;;;;;;;;;5071608;28;20423;-72
2021/04/05 04:44:33;;;;;;;0.70;0.40;;;;;;;;;;5053867;28;20416;-73
2021/04/05 04:46:59;;;;;;;0.70;0.40;;;;;;;;;;5053811;28;20448;-73
2021/04/05 04:49:25;;;;;;;0.70;0.40;;;;;;;;;;5071650;28;20413;-71
2021/04/05 04:51:51;;;;;;;0.70;0.43;;;;;;;;;;5071467;28;20513;-72
2021/04/05 04:54:17;;;;;;;0.70;0.40;;;;;;;;;;5056814;28;20504;-72
2021/04/05 04:56:43;;;;;;;0.70;0.50;;;;;;;;;;5033763;28;20409;-71
2021/04/05 04:59:10;;;;;;;0.70;0.43;;;;;;;;;;5032879;28;20414;-71
2021/04/05 05:01:37;;;;;;;0.70;0.50;;;;;;;;;;5033217;28;20418;-72
2021/04/05 05:04:06;;;;;;;0.70;0.50;;;;;;;;;;5033490;28;20905;-75
2021/04/05 05:06:32;;;;;;;6.40;0.93;;;;;;;;;;5051638;28;20393;-72
2021/04/05 05:08:58;;;;;;;1.57;1.17;;;;;;;;;;5033706;28;20792;-73
2021/04/05 05:11:25;;;;;;;0.70;0.50;;;;;;;;;;5033739;28;20425;-73
2021/04/05 05:13:51;;;;;;;0.80;0.70;;;;;;;;;;5058950;28;21065;-72
2021/04/05 05:16:18;;;;;;;0.80;0.77;;;;;;;;;;5071370;28;20910;-73
2021/04/05 05:18:44;;;;;;;0.70;0.40;;;;;;;;;;5072519;28;20407;-75
2021/04/05 05:21:14;;;;;;;0.70;0.40;;;;;;;;;;5067090;28;20429;-73
2021/04/05 05:23:42;;;;;;;0.70;0.40;;;;;;;;;;5053088;28;20417;-72
2021/04/05 05:26:09;;;;;;;0.80;0.63;;;;;;;;;;5071822;28;20435;-81
2021/04/05 05:28:36;;;;;;;1.53;0.60;;;;;;;;;;5070197;28;20977;-75
2021/04/05 05:31:02;;;;;;;2.10;0.60;;;;;;;;;;5051726;28;20437;-72
2021/04/05 05:33:28;;;;;;;1.43;0.87;;;;;;;;;;5071275;28;20408;-73
2021/04/05 05:35:54;;;;;;;0.70;0.50;;;;;;;;;;5071254;28;20581;-78
2021/04/05 05:38:22;;;;;;;0.77;0.47;;;;;;;;;;5035862;28;20435;-73
2021/04/05 05:40:48;;;;;;;1.43;0.70;;;;;;;;;;5057955;28;20482;-72
2021/04/05 05:43:21;;;;;;;0.87;0.50;;;;;;;;;;5070497;28;20420;-73
2021/04/05 05:45:56;;;;;;;0.70;0.50;;;;;;;;;;5053221;28;20433;-73
2021/04/05 05:48:29;;;;;;;4.30;0.93;;;;;;;;;;5054516;28;21052;-79
2021/04/05 05:51:08;;;;;;;0.70;0.50;;;;;;;;;;5053962;28;20861;-72
2021/04/05 05:53:37;;;;;;;0.70;0.50;;;;;;;;;;5065968;28;20392;-72
2021/04/05 05:56:41;;;;;;;1.90;0.60;;;;;;;;;;5045544;28;20817;-72
2021/04/05 05:59:26;;;;;;;1.10;0.60;;;;;;;;;;5020128;28;20397;-72
2021/04/05 06:01:57;;;;;;;0.70;0.50;;;;;;;;;;5018702;28;20429;-75
2021/04/05 06:04:23;;;;;;;1.83;0.70;;;;;;;;;;5017764;28;20420;-72
2021/04/05 06:07:15;;;;;;;0.70;0.43;;;;;;;;;;5019028;28;20403;-77
2021/04/05 06:10:02;;;;;;;0.70;0.40;;;;;;;;;;5000018;28;21029;-72
2021/04/05 06:12:38;;;;;;;0.70;0.50;;;;;;;;;;5025135;28;20392;-76
2021/04/05 06:15:10;;;;;;;2.93;1.47;;;;;;;;;;5028736;28;20467;-76
2021/04/05 06:17:44;;;;;;;0.70;0.50;;;;;;;;;;5021946;28;20416;-74
2021/04/05 06:20:10;;;;;;;0.70;0.50;;;;;;;;;;5024263;28;20953;-74
2021/04/05 06:22:55;;;;;;;0.70;0.50;;;;;;;;;;5017933;28;20477;-76
2021/04/05 06:25:35;;;;;;;0.70;0.50;;;;;;;;;;5023724;28;20417;-72
2021/04/05 06:28:08;;;;;;;0.70;0.60;;;;;;;;;;5017744;28;20455;-75
2021/04/05 06:30:49;;;;;;;0.70;0.50;;;;;;;;;;5061847;28;20445;-77
2021/04/05 06:33:28;;;;;;;0.70;0.40;;;;;;;;;;5059687;28;20427;-80
2021/04/05 06:36:12;;;;;;;0.70;0.60;;;;;;;;;;5074393;28;20899;-76
2021/04/05 06:38:42;;;;;;;0.70;0.50;;;;;;;;;;5054217;28;20773;-75
2021/04/05 06:41:23;;;;;;;0.70;0.50;;;;;;;;;;5055192;28;20470;-73
2021/04/05 06:44:15;;;;;;;0.80;0.60;;;;;;;;;;5049539;28;20433;-74
2021/04/05 06:46:59;;;;;;;0.70;0.40;;;;;;;;;;5039962;28;20415;-75
2021/04/05 06:49:34;;;;;;;1.33;0.60;;;;;;;;;;5053797;28;20444;-74
2021/04/05 06:52:14;;;;;;;0.70;0.50;;;;;;;;;;5045745;28;20413;-75
2021/04/05 06:54:48;;;;;;;0.70;0.40;;;;;;;;;;5071193;28;20456;-74
2021/04/05 06:57:22;;;;;;;0.70;0.50;;;;;;;;;;5075928;28;20406;-74
2021/04/05 07:00:11;;;;;;;0.70;0.50;;;;;;;;;;5090486;28;20426;-74
2021/04/05 07:02:46;;;;;;;0.70;0.40;;;;;;;;;;5043267;28;20416;-73
2021/04/05 07:05:18;;;;;;;0.70;0.50;;;;;;;;;;5078188;28;20411;-76
2021/04/05 07:07:46;;;;;;;0.70;0.60;;;;;;;;;;5069644;28;20414;-74
2021/04/05 07:10:15;;;;;;;0.70;0.50;;;;;;;;;;5072375;28;20422;-76
2021/04/05 07:12:58;;;;;;;0.70;0.50;;;;;;;;;;5052137;28;20425;-75
2021/04/05 07:15:31;;;;;;;0.70;0.50;;;;;;;;;;5060621;28;20422;-75
2021/04/05 07:18:09;;;;;;;0.70;0.50;;;;;;;;;;5064130;28;20424;-74
2021/04/05 07:20:35;;;;;;;0.70;0.43;;;;;;;;;;5070063;28;20824;-76
2021/04/05 07:23:17;;;;;;;3.43;1.10;;;;;;;;;;5080135;28;20418;-75
2021/04/05 07:25:49;;;;;;;0.70;0.40;;;;;;;;;;5084151;28;20472;-74
2021/04/05 07:28:18;;;;;;;3.80;2.47;;;;;;;;;;5077755;28;20454;-75
2021/04/05 07:30:46;;;;;;;0.83;0.50;;;;;;;;;;5071594;28;20418;-74
2021/04/05 07:33:12;;;;;;;0.70;0.40;;;;;;;;;;5088057;28;20908;-76
2021/04/05 07:35:57;;;;;;;0.70;0.50;;;;;;;;;;5063954;28;20413;-77
2021/04/05 07:38:43;;;;;;;0.80;0.60;;;;;;;;;;5078177;28;20377;-74
2021/04/05 07:41:32;;;;;;;0.93;0.60;;;;;;;;;;5055909;28;20449;-75
2021/04/05 07:44:01;;;;;;;0.73;0.60;;;;;;;;;;5041511;28;20474;-77
2021/04/05 07:46:48;;;;;;;0.70;0.50;;;;;;;;;;5053338;28;20444;-75
2021/04/05 07:49:22;;;;;;;1.27;1.17;;;;;;;;;;5071268;28;20451;-76
2021/04/05 07:52:06;;;;;;;0.70;0.50;;;;;;;;;;5072722;28;20394;-75
2021/04/05 07:54:38;;;;;;;0.73;0.60;;;;;;;;;;5070719;28;20970;-76
2021/04/05 07:57:26;;;;;;;0.70;0.50;;;;;;;;;;5053041;28;20477;-75
2021/04/05 07:59:55;;;;;;;0.70;0.50;;;;;;;;;;5069366;28;20419;-76
2021/04/05 08:02:25;;;;;;;0.70;0.60;;;;;;;;;;5053611;28;20416;-75
2021/04/05 08:04:56;;;;;;;0.70;0.50;;;;;;;;;;5051736;28;20466;-74
2021/04/05 08:07:30;;;;;;;0.70;0.50;;;;;;;;;;5072342;28;20438;-75
2021/04/05 08:10:17;;;;;;;1.43;0.73;;;;;;;;;;5070747;28;20458;-75
2021/04/05 08:13:07;;;;;;;0.70;0.60;;;;;;;;;;5053524;28;20419;-76
2021/04/05 08:15:48;;;;;;;0.70;0.60;;;;;;;;;;5022184;28;20992;-76
2021/04/05 08:18:15;;;;;;;0.70;0.40;;;;;;;;;;5069441;28;20420;-75
2021/04/05 08:20:45;;;;;;;0.70;0.50;;;;;;;;;;5069172;28;20495;-75
2021/04/05 08:23:12;;;;;;;0.70;0.47;;;;;;;;;;5073691;28;20415;-75
2021/04/05 08:26:00;;;;;;;0.70;0.40;;;;;;;;;;5071060;28;20410;-75
2021/04/05 08:28:32;;;;;;;0.70;0.40;;;;;;;;;;5071858;28;20444;-75
2021/04/05 08:31:10;;;;;;;0.70;0.50;;;;;;;;;;5070424;28;20431;-75
2021/04/05 08:33:44;;;;;;;0.70;0.40;;;;;;;;;;5054657;28;20419;-74
2021/04/05 08:36:33;;;;;;;0.70;0.50;;;;;;;;;;5066438;28;20419;-74
2021/04/05 08:39:02;;;;;;;0.70;0.40;;;;;;;;;;5077453;22;20500;-72
2021/04/05 08:41:41;;;;;;;0.70;0.43;;;;;;;;;;5083219;28;20436;-72
2021/04/05 08:44:22;;;;;;;0.70;0.50;;;;;;;;;;5075699;28;20455;-72
2021/04/05 08:46:49;;;;;;;0.70;0.50;;;;;;;;;;5078994;28;20393;-70
2021/04/05 08:49:16;;;;;;;0.70;0.50;;;;;;;;;;5083873;28;20466;-72
2021/04/05 08:51:46;;;;;;;0.70;0.50;;;;;;;;;;5077392;28;20418;-72
2021/04/05 08:54:14;;;;;;;0.70;0.50;;;;;;;;;;5083472;28;20446;-71
2021/04/05 08:56:58;;;;;;;0.70;0.50;;;;;;;;;;5085363;28;20759;-70
2021/04/05 08:59:43;;;;;;;0.80;0.60;;;;;;;;;;5075725;28;20487;-73
2021/04/05 09:02:19;;;;;;;0.70;0.50;;;;;;;;;;5067015;28;20495;-72
2021/04/05 09:04:46;;;;;;;0.70;0.40;;;;;;;;;;5074237;28;20436;-71
2021/04/05 09:07:31;;;;;;;0.70;0.50;;;;;;;;;;5074813;28;20418;-70
2021/04/05 09:09:59;;;;;;;0.70;0.50;;;;;;;;;;5072801;28;20461;-71
2021/04/05 09:12:28;;;;;;;0.70;0.40;;;;;;;;;;5067597;28;20406;-71
2021/04/05 09:15:13;;;;;;;0.70;0.50;;;;;;;;;;5069122;28;20503;-71
2021/04/05 09:17:45;;;;;;;0.70;0.40;;;;;;;;;;5070325;28;20456;-72
2021/04/05 09:20:30;;;;;;;0.70;0.60;;;;;;;;;;5073218;28;20414;-71
2021/04/05 09:23:14;;;;;;;0.70;0.40;;;;;;;;;;5073217;28;20415;-71
2021/04/05 09:25:48;;;;;;;0.70;0.40;;;;;;;;;;5071656;28;20407;-71
2021/04/05 09:28:34;;;;;;;0.70;0.50;;;;;;;;;;5076075;28;20448;-71
2021/04/05 09:31:03;;;;;;;0.70;0.43;;;;;;;;;;5065719;28;20423;-71
2021/04/05 09:33:32;;;;;;;10.00;0.90;;;;;;;;;;5075736;28;20423;-71
2021/04/05 09:36:04;;;;;;;0.80;0.70;;;;;;;;;;5076596;28;20418;-72
2021/04/05 09:38:42;;;;;;;1.10;0.70;;;;;;;;;;5078453;28;20595;-72
2021/04/05 09:41:18;;;;;;;0.97;0.87;;;;;;;;;;5057357;28;20446;-71
2021/04/05 09:44:00;;;;;;;0.70;0.50;;;;;;;;;;5070682;28;20413;-71
2021/04/05 09:46:38;;;;;;;0.70;0.40;;;;;;;;;;5069278;28;20401;-72
2021/04/05 09:49:09;;;;;;;0.70;0.43;;;;;;;;;;5074393;28;20504;-73
2021/04/05 09:51:49;;;;;;;0.90;0.50;;;;;;;;;;5081260;28;20409;-72
2021/04/05 09:54:21;;;;;;;0.70;0.40;;;;;;;;;;5057355;28;20453;-71
2021/04/05 09:56:48;;;;;;;1.33;0.97;;;;;;;;;;5067596;28;20852;-70
2021/04/05 09:59:17;;;;;;;0.70;0.50;;;;;;;;;;5067669;28;20426;-72
2021/04/05 10:01:48;;;;;;;5.90;2.10;;;;;;;;;;5065669;28;20400;-71
2021/04/05 10:04:15;;;;;;;0.80;0.70;;;;;;;;;;5054334;28;20758;-71
2021/04/05 10:06:42;;;;;;;0.70;0.40;;;;;;;;;;5067090;28;20378;-72
2021/04/05 10:09:09;;;;;;;2.90;2.63;;;;;;;;;;5056617;28;20455;-71
2021/04/05 10:11:40;;;;;;;0.70;0.60;;;;;;;;;;5058847;28;20989;-73
2021/04/05 10:14:09;;;;;;;0.70;0.60;;;;;;;;;;5065877;28;20426;-72
2021/04/05 10:16:36;;;;;;;2.67;2.10;;;;;;;;;;5054116;28;20407;-70
2021/04/05 10:19:07;;;;;;;1.13;0.80;;;;;;;;;;5091518;22;20427;-71
2021/04/05 10:21:35;;;;;;;4.30;1.23;;;;;;;;;;5078348;28;20475;-69
2021/04/05 10:24:02;;;;;;;0.70;0.50;;;;;;;;;;5085421;28;20485;-71
2021/04/05 10:26:32;;;;;;;0.70;0.40;;;;;;;;;;5086964;28;20848;-70
2021/04/05 10:28:58;;;;;;;0.70;0.50;;;;;;;;;;5086548;28;20857;-70
2021/04/05 10:31:25;;;;;;;0.70;0.60;;;;;;;;;;5088584;28;20413;-69
2021/04/05 10:33:52;;;;;;;0.70;0.40;;;;;;;;;;5090213;28;20401;-69
2021/04/05 10:36:22;;;;;;;0.70;0.50;;;;;;;;;;5088316;28;20404;-69
2021/04/05 10:38:48;;;;;;;0.70;0.60;;;;;;;;;;5099893;28;20753;-69
2021/04/05 10:41:18;;;;;;;1.43;0.60;;;;;;;;;;5098178;28;20433;-72
2021/04/05 10:43:56;;;;;;;0.70;0.40;;;;;;;;;;5097378;28;20849;-69
2021/04/05 10:46:28;;;;;;;0.70;0.50;;;;;;;;;;5080417;28;20412;-70
2021/04/05 10:48:55;;;;;;;1.43;1.33;;;;;;;;;;5100676;28;20926;-71
2021/04/05 10:51:27;;;;;;;0.70;0.50;;;;;;;;;;5082430;28;20455;-72
2021/04/05 10:54:07;;;;;;;0.70;0.40;;;;;;;;;;5080806;28;20426;-70
2021/04/05 10:56:35;;;;;;;2.00;1.47;;;;;;;;;;5083388;28;20490;-69
2021/04/05 10:59:04;;;;;;;0.80;0.60;;;;;;;;;;5082038;28;20399;-70
2021/04/05 11:01:32;;;;;;;0.70;0.40;;;;;;;;;;5086722;28;20422;-69
2021/04/05 11:03:59;;;;;;;0.70;0.40;;;;;;;;;;5070866;28;20420;-70
2021/04/05 11:06:25;;;;;;;1.43;0.80;;;;;;;;;;5083677;28;20407;-69
2021/04/05 11:08:53;;;;;;;0.90;0.70;;;;;;;;;;5084186;28;20610;-70
2021/04/05 11:11:27;;;;;;;1.43;0.60;;;;;;;;;;5092939;28;20412;-70
2021/04/05 11:13:57;;;;;;;0.70;0.50;;;;;;;;;;5091778;28;20394;-70
2021/04/05 11:16:23;;;;;;;3.70;1.63;;;;;;;;;;5083457;28;20738;-70
2021/04/05 11:18:54;;;;;;;3.23;3.03;;;;;;;;;;5081817;28;20490;-69
2021/04/05 11:21:21;;;;;;;1.17;1.07;;;;;;;;;;5087736;28;20969;-71
2021/04/05 11:23:49;;;;;;;0.70;0.43;;;;;;;;;;5089492;28;20896;-59
2021/04/05 11:26:20;;;;;;;0.90;0.60;;;;;;;;;;5089084;28;20442;-70
2021/04/05 11:28:49;;;;;;;0.90;0.53;;;;;;;;;;5090721;28;20948;-71
2021/04/05 11:31:16;;;;;;;0.70;0.50;;;;;;;;;;5089901;28;20869;-71
2021/04/05 11:33:55;;;;;;;11.43;0.93;;;;;;;;;;5061486;28;20705;-71
2021/04/05 11:36:22;;;;;;;1.17;1.07;;;;;;;;;;5080261;28;20412;-71
2021/04/05 11:38:49;;;;;;;0.70;0.50;;;;;;;;;;5092587;28;20636;-70
2021/04/05 11:41:17;;;;;;;0.90;0.63;;;;;;;;;;5092575;28;20412;-70
2021/04/05 11:43:47;;;;;;;1.63;0.70;;;;;;;;;;5090751;28;20470;-70
2021/04/05 11:46:14;;;;;;;2.10;1.17;;;;;;;;;;5074961;28;20944;-69
2021/04/05 11:48:40;;;;;;;1.73;0.97;;;;;;;;;;5091720;28;20457;-70
2021/04/05 11:51:06;;;;;;;5.17;4.87;;;;;;;;;;5072974;28;20435;-70
2021/04/05 11:53:35;;;;;;;0.70;0.40;;;;;;;;;;5092282;28;20407;-71
2021/04/05 11:56:04;;;;;;;0.70;0.40;;;;;;;;;;5071215;28;20486;-71
2021/04/05 11:58:35;;;;;;;0.70;0.40;;;;;;;;;;5090191;28;20514;-70
2021/04/05 12:01:03;;;;;;;0.70;0.50;;;;;;;;;;5091244;28;20445;-70
2021/04/05 12:03:32;;;;;;;1.43;1.33;;;;;;;;;;5071271;28;20439;-71
2021/04/05 12:06:11;;;;;;;0.73;0.60;;;;;;;;;;5087169;28;20939;-70
2021/04/05 12:08:49;;;;;;;0.70;0.40;;;;;;;;;;5066140;28;20518;-69
2021/04/05 12:11:16;;;;;;;0.70;0.50;;;;;;;;;;5090098;28;20505;-71
2021/04/05 12:13:44;;;;;;;0.80;0.60;;;;;;;;;;5085538;28;21386;-71
2021/04/05 12:16:11;;;;;;;0.70;0.40;;;;;;;;;;5071581;28;20427;-71
2021/04/05 12:18:37;;;;;;;0.80;0.60;;;;;;;;;;5089855;28;20624;-71
2021/04/05 12:21:03;;;;;;;0.70;0.50;;;;;;;;;;5088346;28;20829;-71
2021/04/05 12:23:31;;;;;;;0.80;0.70;;;;;;;;;;5090598;28;20474;-71
2021/04/05 12:25:58;;;;;;;0.70;0.50;;;;;;;;;;5086096;28;20444;-71
2021/04/05 12:28:32;;;;;;;2.00;1.07;;;;;;;;;;5082974;28;20470;-70
2021/04/05 12:30:58;;;;;;;1.10;0.80;;;;;;;;;;5083563;28;20437;-71
2021/04/05 12:33:26;;;;;;;0.80;0.60;;;;;;;;;;5091739;28;20398;-71
2021/04/05 12:35:54;;;;;;;0.70;0.50;;;;;;;;;;5092256;28;20510;-71
2021/04/05 12:38:26;;;;;;;0.70;0.50;;;;;;;;;;5080966;28;20394;-71
2021/04/05 12:40:52;;;;;;;0.70;0.50;;;;;;;;;;5082007;28;20446;-72
2021/04/05 12:43:23;;;;;;;0.70;0.50;;;;;;;;;;5075219;28;20401;-71
2021/04/05 12:45:51;;;;;;;0.70;0.50;;;;;;;;;;5083869;28;20899;-71
2021/04/05 12:48:20;;;;;;;0.70;0.63;;;;;;;;;;5091565;28;20447;-71
2021/04/05 12:50:46;;;;;;;0.70;0.50;;;;;;;;;;5090004;28;20999;-71
2021/04/05 12:53:13;;;;;;;0.70;0.50;;;;;;;;;;5079363;28;20415;-71
2021/04/05 12:55:42;;;;;;;0.70;0.40;;;;;;;;;;5062282;28;20401;-72
2021/04/05 12:58:09;;;;;;;0.70;0.40;;;;;;;;;;5084965;28;20396;-71
2021/04/05 13:00:41;;;;;;;0.70;0.40;;;;;;;;;;5090691;28;20769;-71
2021/04/05 13:03:13;;;;;;;0.70;0.50;;;;;;;;;;5072237;28;20416;-71
2021/04/05 13:05:47;;;;;;;1.90;0.40;;;;;;;;;;5072621;28;20409;-70
2021/04/05 13:08:30;;;;;;;0.73;0.53;;;;;;;;;;5072546;28;20404;-69
2021/04/05 13:11:00;;;;;;;0.70;0.40;;;;;;;;;;5090363;28;20508;-71
2021/04/05 13:13:28;;;;;;;0.70;0.50;;;;;;;;;;5090224;28;20403;-71
2021/04/05 13:15:57;;;;;;;0.70;0.50;;;;;;;;;;5090647;28;20403;-71
2021/04/05 13:18:27;;;;;;;0.70;0.47;;;;;;;;;;5091025;28;20883;-71
2021/04/05 13:21:00;;;;;;;0.70;0.50;;;;;;;;;;5089307;28;20523;-70
2021/04/05 13:23:27;;;;;;;0.70;0.50;;;;;;;;;;5085828;28;20929;-71
2021/04/05 13:25:58;;;;;;;0.70;0.50;;;;;;;;;;5111739;28;20579;-72
2021/04/05 13:28:28;;;;;;;1.43;0.60;;;;;;;;;;5111367;28;20451;-72
2021/04/05 13:30:58;;;;;;;0.70;0.50;;;;;;;;;;5070211;28;21018;-72
2021/04/05 13:33:25;;;;;;;0.70;0.50;;;;;;;;;;5075594;28;20440;-69
2021/04/05 13:36:04;;;;;;;0.70;0.50;;;;;;;;;;5088474;28;20474;-70
2021/04/05 13:38:30;;;;;;;0.70;0.40;;;;;;;;;;5089533;28;20407;-68
2021/04/05 13:41:02;;;;;;;0.70;0.50;;;;;;;;;;5088214;28;20704;-70
2021/04/05 13:43:28;;;;;;;0.70;0.50;;;;;;;;;;5086377;28;20428;-70
2021/04/05 13:45:55;;;;;;;1.27;0.97;;;;;;;;;;5071735;28;20508;-69
2021/04/05 13:48:26;;;;;;;0.70;0.40;;;;;;;;;;5089229;28;20482;-71
2021/04/05 13:50:57;;;;;;;0.70;0.40;;;;;;;;;;5089813;28;20472;-68
2021/04/05 13:53:49;;;;;;;0.70;0.40;;;;;;;;;;5076353;28;20439;-69
2021/04/05 13:56:16;;;;;;;0.70;0.40;;;;;;;;;;5085119;28;20412;-68
2021/04/05 13:58:48;;;;;;;0.70;0.40;;;;;;;;;;5086897;28;20431;-70
2021/04/05 14:01:18;;;;;;;0.77;0.57;;;;;;;;;;5085992;28;20466;-71
2021/04/05 14:03:46;;;;;;;0.80;0.60;;;;;;;;;;5072801;28;20419;-70
2021/04/05 14:06:18;;;;;;;1.07;0.70;;;;;;;;;;5083694;28;20413;-68
2021/04/05 14:08:45;;;;;;;0.70;0.50;;;;;;;;;;5088917;28;20479;-71
2021/04/05 14:11:15;;;;;;;1.00;0.50;;;;;;;;;;5053929;28;20434;-72
2021/04/05 14:13:43;;;;;;;0.70;0.40;;;;;;;;;;5090115;28;20805;-72
2021/04/05 14:16:24;;;;;;;4.43;1.17;;;;;;;;;;5085423;28;20434;-71
2021/04/05 14:18:56;;;;;;;3.90;0.60;;;;;;;;;;5089287;28;20724;-72
2021/04/05 14:21:24;;;;;;;0.70;0.60;;;;;;;;;;5088543;28;20414;-72
2021/04/05 14:23:52;;;;;;;0.77;0.53;;;;;;;;;;5091700;28;20502;-70
2021/04/05 14:26:18;;;;;;;0.70;0.40;;;;;;;;;;5089140;28;20435;-71
2021/04/05 14:28:52;;;;;;;0.80;0.57;;;;;;;;;;5089408;28;20722;-71
2021/04/05 14:31:19;;;;;;;0.70;0.50;;;;;;;;;;5088401;28;20776;-70
2021/04/05 14:33:55;;;;;;;0.70;0.50;;;;;;;;;;5092390;28;20399;-71
2021/04/05 14:36:35;;;;;;;0.70;0.60;;;;;;;;;;5093129;28;20880;-72
2021/04/05 14:39:08;;;;;;;1.13;0.90;;;;;;;;;;5074426;28;20476;-74
2021/04/05 14:41:40;;;;;;;0.70;0.60;;;;;;;;;;5091950;28;20431;-72
2021/04/05 14:44:08;;;;;;;1.37;0.93;;;;;;;;;;5073748;28;20408;-73
2021/04/05 14:46:41;;;;;;;0.70;0.60;;;;;;;;;;5072514;28;20412;-72
2021/04/05 14:49:09;;;;;;;0.77;0.63;;;;;;;;;;5089352;28;20542;-73
2021/04/05 14:51:36;;;;;;;0.70;0.50;;;;;;;;;;5090838;28;20399;-71
2021/04/05 14:54:04;;;;;;;0.70;0.40;;;;;;;;;;5084268;28;20411;-71
2021/04/05 14:56:31;;;;;;;0.70;0.43;;;;;;;;;;5066444;28;20452;-71
2021/04/05 14:58:59;;;;;;;0.70;0.50;;;;;;;;;;5082523;28;20415;-72
2021/04/05 15:01:32;;;;;;;0.70;0.60;;;;;;;;;;5089204;28;20423;-71
2021/04/05 15:04:03;;;;;;;0.70;0.50;;;;;;;;;;5091880;28;20507;-72